sensor_id;sensor_type;location;lat;lon;timestamp;pressure;altitude;pressure_sealevel;temperature;humidity
76551;BME280;68768;53.156;18.164;2023-11-18T00:01:53;101692.22;;;1.22;89.69
76551;BME280;68768;53.156;18.164;2023-11-18T00:04:20;101692.06;;;1.21;89.53
76551;BME280;68768;53.156;18.164;2023-11-18T00:06:47;101696.23;;;1.21;89.61
76551;BME280;68768;53.156;18.164;2023-11-18T00:09:14;101698.35;;;1.21;89.50
76551;BME280;68768;53.156;18.164;2023-11-18T00:11:41;101701.66;;;1.21;89.50
76551;BME280;68768;53.156;18.164;2023-11-18T00:14:11;101705.52;;;1.21;89.45
76551;BME280;68768;53.156;18.164;2023-11-18T00:16:39;101703.93;;;1.20;89.38
76551;BME280;68768;53.156;18.164;2023-11-18T00:19:06;101706.68;;;1.18;89.34
76551;BME280;68768;53.156;18.164;2023-11-18T00:21:36;101709.27;;;1.16;89.51
76551;BME280;68768;53.156;18.164;2023-11-18T00:24:03;101714.68;;;1.16;89.54
76551;BME280;68768;53.156;18.164;2023-11-18T00:26:30;101718.02;;;1.17;89.70
76551;BME280;68768;53.156;18.164;2023-11-18T00:28:59;101726.43;;;1.17;89.66
76551;BME280;68768;53.156;18.164;2023-11-18T00:31:27;101722.91;;;1.16;89.57
76551;BME280;68768;53.156;18.164;2023-11-18T00:33:55;101724.84;;;1.16;89.74
76551;BME280;68768;53.156;18.164;2023-11-18T00:36:22;101723.45;;;1.17;89.66
76551;BME280;68768;53.156;18.164;2023-11-18T00:38:48;101728.33;;;1.16;89.67
76551;BME280;68768;53.156;18.164;2023-11-18T00:41:15;101736.39;;;1.17;89.62
76551;BME280;68768;53.156;18.164;2023-11-18T00:43:43;101740.43;;;1.18;89.78
76551;BME280;68768;53.156;18.164;2023-11-18T00:46:10;101746.90;;;1.18;89.67
76551;BME280;68768;53.156;18.164;2023-11-18T00:48:37;101749.50;;;1.17;89.72
76551;BME280;68768;53.156;18.164;2023-11-18T00:51:07;101749.65;;;1.15;89.63
76551;BME280;68768;53.156;18.164;2023-11-18T00:53:35;101758.00;;;1.13;89.41
76551;BME280;68768;53.156;18.164;2023-11-18T00:56:02;101759.88;;;1.10;89.56
76551;BME280;68768;53.156;18.164;2023-11-18T00:58:29;101762.66;;;1.09;89.73
76551;BME280;68768;53.156;18.164;2023-11-18T01:00:55;101765.24;;;1.07;89.61
76551;BME280;68768;53.156;18.164;2023-11-18T01:03:22;101766.95;;;1.05;89.73
76551;BME280;68768;53.156;18.164;2023-11-18T01:05:49;101771.45;;;1.03;89.81
76551;BME280;68768;53.156;18.164;2023-11-18T01:08:16;101776.34;;;1.01;89.67
76551;BME280;68768;53.156;18.164;2023-11-18T01:10:44;101777.02;;;0.99;89.93
76551;BME280;68768;53.156;18.164;2023-11-18T01:13:11;101778.56;;;0.99;89.87
76551;BME280;68768;53.156;18.164;2023-11-18T01:15:38;101783.84;;;1.01;90.09
76551;BME280;68768;53.156;18.164;2023-11-18T01:18:05;101783.15;;;1.02;90.16
76551;BME280;68768;53.156;18.164;2023-11-18T01:20:33;101780.21;;;1.04;90.11
76551;BME280;68768;53.156;18.164;2023-11-18T01:23:00;101780.23;;;1.05;90.27
76551;BME280;68768;53.156;18.164;2023-11-18T01:25:27;101777.28;;;1.06;90.27
76551;BME280;68768;53.156;18.164;2023-11-18T01:27:56;101775.55;;;1.07;90.15
76551;BME280;68768;53.156;18.164;2023-11-18T01:30:23;101776.65;;;1.09;90.13
76551;BME280;68768;53.156;18.164;2023-11-18T01:32:50;101780.69;;;1.10;90.19
76551;BME280;68768;53.156;18.164;2023-11-18T01:35:17;101778.24;;;1.10;90.27
76551;BME280;68768;53.156;18.164;2023-11-18T01:37:44;101779.30;;;1.12;90.33
76551;BME280;68768;53.156;18.164;2023-11-18T01:40:11;101777.04;;;1.13;90.27
76551;BME280;68768;53.156;18.164;2023-11-18T01:42:42;101776.70;;;1.13;90.33
76551;BME280;68768;53.156;18.164;2023-11-18T01:45:09;101773.38;;;1.13;90.15
76551;BME280;68768;53.156;18.164;2023-11-18T01:47:40;101771.98;;;1.13;90.02
76551;BME280;68768;53.156;18.164;2023-11-18T01:50:09;101775.81;;;1.12;90.22
76551;BME280;68768;53.156;18.164;2023-11-18T01:52:38;101784.04;;;1.11;90.20
76551;BME280;68768;53.156;18.164;2023-11-18T01:55:06;101789.10;;;1.11;90.31
76551;BME280;68768;53.156;18.164;2023-11-18T01:57:34;101793.83;;;1.12;90.20
76551;BME280;68768;53.156;18.164;2023-11-18T02:00:01;101794.52;;;1.11;90.26
76551;BME280;68768;53.156;18.164;2023-11-18T02:02:40;101794.86;;;1.10;90.09
76551;BME280;68768;53.156;18.164;2023-11-18T02:05:07;101795.87;;;1.08;90.33
76551;BME280;68768;53.156;18.164;2023-11-18T02:07:34;101798.65;;;1.08;90.11
76551;BME280;68768;53.156;18.164;2023-11-18T02:10:04;101797.60;;;1.08;90.15
76551;BME280;68768;53.156;18.164;2023-11-18T02:15:08;101804.87;;;1.04;90.21
76551;BME280;68768;53.156;18.164;2023-11-18T02:17:41;101807.31;;;1.04;90.50
76551;BME280;68768;53.156;18.164;2023-11-18T02:20:12;101808.54;;;1.04;90.50
76551;BME280;68768;53.156;18.164;2023-11-18T02:22:43;101812.36;;;1.03;90.47
76551;BME280;68768;53.156;18.164;2023-11-18T02:25:15;101816.19;;;1.02;90.60
76551;BME280;68768;53.156;18.164;2023-11-18T02:27:43;101819.52;;;1.03;90.42
76551;BME280;68768;53.156;18.164;2023-11-18T02:30:12;101815.33;;;1.02;90.66
76551;BME280;68768;53.156;18.164;2023-11-18T02:32:49;101816.38;;;1.02;90.74
76551;BME280;68768;53.156;18.164;2023-11-18T02:35:23;101813.21;;;1.02;90.62
76551;BME280;68768;53.156;18.164;2023-11-18T02:37:53;101813.40;;;1.03;90.46
76551;BME280;68768;53.156;18.164;2023-11-18T02:40:36;101809.22;;;1.03;90.42
76551;BME280;68768;53.156;18.164;2023-11-18T02:43:04;101807.84;;;1.04;90.61
76551;BME280;68768;53.156;18.164;2023-11-18T02:45:32;101809.92;;;1.03;90.49
76551;BME280;68768;53.156;18.164;2023-11-18T02:48:00;101806.23;;;1.03;90.49
76551;BME280;68768;53.156;18.164;2023-11-18T02:50:27;101815.84;;;1.02;90.39
76551;BME280;68768;53.156;18.164;2023-11-18T02:52:55;101820.55;;;1.01;90.51
76551;BME280;68768;53.156;18.164;2023-11-18T02:55:22;101817.77;;;1.01;90.49
76551;BME280;68768;53.156;18.164;2023-11-18T02:57:50;101823.88;;;1.01;90.39
76551;BME280;68768;53.156;18.164;2023-11-18T03:00:18;101827.20;;;1.00;90.51
76551;BME280;68768;53.156;18.164;2023-11-18T03:02:49;101829.66;;;1.01;90.56
76551;BME280;68768;53.156;18.164;2023-11-18T03:05:20;101832.96;;;1.02;90.63
76551;BME280;68768;53.156;18.164;2023-11-18T03:07:48;101835.42;;;1.01;90.70
76551;BME280;68768;53.156;18.164;2023-11-18T03:10:20;101837.54;;;1.03;90.83
76551;BME280;68768;53.156;18.164;2023-11-18T03:12:52;101839.45;;;1.03;90.86
76551;BME280;68768;53.156;18.164;2023-11-18T03:15:20;101845.91;;;1.01;90.89
76551;BME280;68768;53.156;18.164;2023-11-18T03:17:49;101855.90;;;1.03;90.87
76551;BME280;68768;53.156;18.164;2023-11-18T03:20:17;101861.02;;;1.05;90.95
76551;BME280;68768;53.156;18.164;2023-11-18T03:22:45;101865.27;;;1.08;90.95
76551;BME280;68768;53.156;18.164;2023-11-18T03:25:13;101867.94;;;1.10;90.93
76551;BME280;68768;53.156;18.164;2023-11-18T03:27:40;101868.83;;;1.11;90.94
76551;BME280;68768;53.156;18.164;2023-11-18T03:30:07;101871.46;;;1.13;90.90
76551;BME280;68768;53.156;18.164;2023-11-18T03:32:35;101871.66;;;1.14;90.82
76551;BME280;68768;53.156;18.164;2023-11-18T03:35:04;101875.36;;;1.15;90.75
76551;BME280;68768;53.156;18.164;2023-11-18T03:37:35;101880.30;;;1.17;90.79
76551;BME280;68768;53.156;18.164;2023-11-18T03:40:07;101886.63;;;1.19;90.90
76551;BME280;68768;53.156;18.164;2023-11-18T03:42:34;101894.89;;;1.22;90.96
76551;BME280;68768;53.156;18.164;2023-11-18T03:45:02;101897.02;;;1.24;90.94
76551;BME280;68768;53.156;18.164;2023-11-18T03:47:29;101897.05;;;1.25;90.91
76551;BME280;68768;53.156;18.164;2023-11-18T03:49:57;101901.64;;;1.27;90.78
76551;BME280;68768;53.156;18.164;2023-11-18T03:52:25;101904.83;;;1.29;90.90
76551;BME280;68768;53.156;18.164;2023-11-18T03:54:52;101900.34;;;1.31;90.90
76551;BME280;68768;53.156;18.164;2023-11-18T03:57:19;101901.23;;;1.33;90.85
76551;BME280;68768;53.156;18.164;2023-11-18T03:59:46;101902.83;;;1.35;90.89
76551;BME280;68768;53.156;18.164;2023-11-18T04:02:13;101903.21;;;1.36;90.78
76551;BME280;68768;53.156;18.164;2023-11-18T04:04:40;101907.81;;;1.38;90.69
76551;BME280;68768;53.156;18.164;2023-11-18T04:07:07;101916.77;;;1.40;90.82
76551;BME280;68768;53.156;18.164;2023-11-18T04:09:34;101921.88;;;1.43;90.79
76551;BME280;68768;53.156;18.164;2023-11-18T04:12:01;101915.59;;;1.44;90.73
76551;BME280;68768;53.156;18.164;2023-11-18T04:14:28;101917.73;;;1.46;90.68
76551;BME280;68768;53.156;18.164;2023-11-18T04:16:55;101914.27;;;1.48;90.61
76551;BME280;68768;53.156;18.164;2023-11-18T04:19:24;101917.45;;;1.50;90.67
76551;BME280;68768;53.156;18.164;2023-11-18T04:21:51;101920.09;;;1.50;90.69
76551;BME280;68768;53.156;18.164;2023-11-18T04:24:18;101927.60;;;1.50;90.63
76551;BME280;68768;53.156;18.164;2023-11-18T04:26:45;101927.10;;;1.51;90.60
76551;BME280;68768;53.156;18.164;2023-11-18T04:29:12;101934.98;;;1.52;90.67
76551;BME280;68768;53.156;18.164;2023-11-18T04:31:39;101934.14;;;1.54;90.87
76551;BME280;68768;53.156;18.164;2023-11-18T04:34:06;101938.73;;;1.56;90.58
76551;BME280;68768;53.156;18.164;2023-11-18T04:36:33;101938.08;;;1.58;90.59
76551;BME280;68768;53.156;18.164;2023-11-18T04:39:01;101945.69;;;1.62;90.60
76551;BME280;68768;53.156;18.164;2023-11-18T04:41:30;101953.06;;;1.65;90.61
76551;BME280;68768;53.156;18.164;2023-11-18T04:43:58;101954.36;;;1.69;90.68
76551;BME280;68768;53.156;18.164;2023-11-18T04:46:25;101956.88;;;1.72;90.69
76551;BME280;68768;53.156;18.164;2023-11-18T04:48:52;101952.02;;;1.75;90.67
76551;BME280;68768;53.156;18.164;2023-11-18T04:51:21;101954.34;;;1.77;90.57
76551;BME280;68768;53.156;18.164;2023-11-18T04:53:49;101957.09;;;1.75;90.30
76551;BME280;68768;53.156;18.164;2023-11-18T04:56:16;101958.14;;;1.75;90.31
76551;BME280;68768;53.156;18.164;2023-11-18T04:58:46;101965.13;;;1.74;90.18
76551;BME280;68768;53.156;18.164;2023-11-18T05:01:14;101969.84;;;1.74;90.33
76551;BME280;68768;53.156;18.164;2023-11-18T05:03:41;101972.65;;;1.75;90.29
76551;BME280;68768;53.156;18.164;2023-11-18T05:06:08;101977.60;;;1.77;90.25
76551;BME280;68768;53.156;18.164;2023-11-18T05:08:35;101977.48;;;1.79;90.30
76551;BME280;68768;53.156;18.164;2023-11-18T05:11:03;101976.80;;;1.80;90.44
76551;BME280;68768;53.156;18.164;2023-11-18T05:13:31;101977.17;;;1.82;90.32
76551;BME280;68768;53.156;18.164;2023-11-18T05:16:00;101977.73;;;1.83;90.18
76551;BME280;68768;53.156;18.164;2023-11-18T05:18:27;101980.35;;;1.84;90.33
76551;BME280;68768;53.156;18.164;2023-11-18T05:20:56;101985.99;;;1.86;90.30
76551;BME280;68768;53.156;18.164;2023-11-18T05:23:23;101987.58;;;1.86;90.25
76551;BME280;68768;53.156;18.164;2023-11-18T05:25:51;101981.27;;;1.86;90.24
76551;BME280;68768;53.156;18.164;2023-11-18T05:28:18;101983.86;;;1.84;90.20
76551;BME280;68768;53.156;18.164;2023-11-18T05:30:45;101985.60;;;1.83;90.13
76551;BME280;68768;53.156;18.164;2023-11-18T05:33:11;101992.92;;;1.81;90.17
76551;BME280;68768;53.156;18.164;2023-11-18T05:35:45;101997.45;;;1.80;90.02
76551;BME280;68768;53.156;18.164;2023-11-18T05:38:20;102001.85;;;1.81;90.12
76551;BME280;68768;53.156;18.164;2023-11-18T05:40:52;102002.71;;;1.80;90.08
76551;BME280;68768;53.156;18.164;2023-11-18T05:43:29;102003.60;;;1.81;90.10
76551;BME280;68768;53.156;18.164;2023-11-18T05:46:03;102006.79;;;1.82;90.18
76551;BME280;68768;53.156;18.164;2023-11-18T05:48:49;102005.56;;;1.83;90.16
76551;BME280;68768;53.156;18.164;2023-11-18T05:51:26;102007.14;;;1.83;90.15
76551;BME280;68768;53.156;18.164;2023-11-18T05:53:53;102005.21;;;1.83;90.03
76551;BME280;68768;53.156;18.164;2023-11-18T05:56:21;102001.70;;;1.84;90.07
76551;BME280;68768;53.156;18.164;2023-11-18T05:58:52;102003.10;;;1.83;89.97
76551;BME280;68768;53.156;18.164;2023-11-18T06:01:22;102008.02;;;1.82;89.80
76551;BME280;68768;53.156;18.164;2023-11-18T06:03:49;102010.64;;;1.83;89.94
76551;BME280;68768;53.156;18.164;2023-11-18T06:06:16;102010.80;;;1.83;89.91
76551;BME280;68768;53.156;18.164;2023-11-18T06:08:43;102010.98;;;1.82;89.91
76551;BME280;68768;53.156;18.164;2023-11-18T06:11:11;102014.98;;;1.81;89.85
76551;BME280;68768;53.156;18.164;2023-11-18T06:13:44;102015.71;;;1.83;90.07
76551;BME280;68768;53.156;18.164;2023-11-18T06:16:18;102021.27;;;1.90;90.47
76551;BME280;68768;53.156;18.164;2023-11-18T06:18:48;102027.52;;;1.98;90.66
76551;BME280;68768;53.156;18.164;2023-11-18T06:21:23;102033.06;;;2.04;90.62
76551;BME280;68768;53.156;18.164;2023-11-18T06:23:58;102037.74;;;2.10;90.54
76551;BME280;68768;53.156;18.164;2023-11-18T06:26:25;102041.90;;;2.18;90.59
76551;BME280;68768;53.156;18.164;2023-11-18T06:28:54;102050.92;;;2.23;90.27
76551;BME280;68768;53.156;18.164;2023-11-18T06:31:21;102053.45;;;2.28;90.13
76551;BME280;68768;53.156;18.164;2023-11-18T06:33:50;102053.34;;;2.31;89.90
76551;BME280;68768;53.156;18.164;2023-11-18T06:36:18;102050.81;;;2.28;89.13
76551;BME280;68768;53.156;18.164;2023-11-18T06:38:46;102050.58;;;2.25;89.15
76551;BME280;68768;53.156;18.164;2023-11-18T06:41:13;102055.55;;;2.18;88.89
76551;BME280;68768;53.156;18.164;2023-11-18T06:43:43;102053.30;;;2.09;88.81
76551;BME280;68768;53.156;18.164;2023-11-18T06:46:24;102057.36;;;2.01;88.69
76551;BME280;68768;53.156;18.164;2023-11-18T06:48:52;102057.00;;;1.92;88.76
76551;BME280;68768;53.156;18.164;2023-11-18T06:51:25;102066.70;;;1.86;88.71
76551;BME280;68768;53.156;18.164;2023-11-18T06:53:54;102070.77;;;1.78;88.84
76551;BME280;68768;53.156;18.164;2023-11-18T06:56:24;102074.35;;;1.74;88.98
76551;BME280;68768;53.156;18.164;2023-11-18T06:58:52;102077.80;;;1.71;89.15
76551;BME280;68768;53.156;18.164;2023-11-18T07:01:19;102079.69;;;1.70;89.28
76551;BME280;68768;53.156;18.164;2023-11-18T07:03:47;102085.64;;;1.70;89.27
76551;BME280;68768;53.156;18.164;2023-11-18T07:06:20;102086.35;;;1.70;89.35
76551;BME280;68768;53.156;18.164;2023-11-18T07:08:54;102083.88;;;1.69;89.37
76551;BME280;68768;53.156;18.164;2023-11-18T07:11:27;102084.23;;;1.70;89.51
76551;BME280;68768;53.156;18.164;2023-11-18T07:13:54;102085.98;;;1.70;89.46
76551;BME280;68768;53.156;18.164;2023-11-18T07:16:24;102085.81;;;1.70;89.59
76551;BME280;68768;53.156;18.164;2023-11-18T07:18:52;102090.38;;;1.70;89.61
76551;BME280;68768;53.156;18.164;2023-11-18T07:21:19;102086.70;;;1.70;89.61
76551;BME280;68768;53.156;18.164;2023-11-18T07:23:47;102085.30;;;1.70;89.55
76551;BME280;68768;53.156;18.164;2023-11-18T07:26:14;102085.83;;;1.70;89.52
76551;BME280;68768;53.156;18.164;2023-11-18T07:28:41;102080.94;;;1.71;89.55
76551;BME280;68768;53.156;18.164;2023-11-18T07:31:08;102081.34;;;1.73;89.72
76551;BME280;68768;53.156;18.164;2023-11-18T07:33:35;102087.46;;;1.74;89.53
76551;BME280;68768;53.156;18.164;2023-11-18T07:36:03;102089.73;;;1.74;89.45
76551;BME280;68768;53.156;18.164;2023-11-18T07:38:32;102091.32;;;1.74;89.60
76551;BME280;68768;53.156;18.164;2023-11-18T07:41:01;102087.83;;;1.75;89.55
76551;BME280;68768;53.156;18.164;2023-11-18T07:43:29;102090.67;;;1.77;89.60
76551;BME280;68768;53.156;18.164;2023-11-18T07:45:57;102088.44;;;1.78;89.46
76551;BME280;68768;53.156;18.164;2023-11-18T07:48:24;102094.73;;;1.78;89.41
76551;BME280;68768;53.156;18.164;2023-11-18T07:50:50;102099.98;;;1.78;89.35
76551;BME280;68768;53.156;18.164;2023-11-18T07:53:17;102105.56;;;1.77;89.28
76551;BME280;68768;53.156;18.164;2023-11-18T07:55:44;102107.89;;;1.79;89.43
76551;BME280;68768;53.156;18.164;2023-11-18T07:58:11;102104.45;;;1.83;89.42
76551;BME280;68768;53.156;18.164;2023-11-18T08:00:42;102105.03;;;1.86;89.34
76551;BME280;68768;53.156;18.164;2023-11-18T08:03:12;102105.13;;;1.90;89.46
76551;BME280;68768;53.156;18.164;2023-11-18T08:05:44;102105.19;;;1.94;89.32
76551;BME280;68768;53.156;18.164;2023-11-18T08:08:12;102107.40;;;2.00;89.32
76551;BME280;68768;53.156;18.164;2023-11-18T08:10:41;102108.36;;;2.04;89.26
76551;BME280;68768;53.156;18.164;2023-11-18T08:13:10;102109.02;;;2.10;89.14
76551;BME280;68768;53.156;18.164;2023-11-18T08:15:41;102104.36;;;2.15;88.92
76551;BME280;68768;53.156;18.164;2023-11-18T08:18:09;102107.27;;;2.21;88.86
76551;BME280;68768;53.156;18.164;2023-11-18T08:20:39;102110.50;;;2.26;88.88
76551;BME280;68768;53.156;18.164;2023-11-18T08:23:06;102112.81;;;2.27;88.57
76551;BME280;68768;53.156;18.164;2023-11-18T08:25:34;102113.51;;;2.27;88.25
76551;BME280;68768;53.156;18.164;2023-11-18T08:28:02;102117.88;;;2.27;88.17
76551;BME280;68768;53.156;18.164;2023-11-18T08:30:30;102117.31;;;2.26;88.08
76551;BME280;68768;53.156;18.164;2023-11-18T08:32:58;102113.62;;;2.23;87.54
76551;BME280;68768;53.156;18.164;2023-11-18T08:35:26;102109.55;;;2.20;87.67
76551;BME280;68768;53.156;18.164;2023-11-18T08:37:53;102112.02;;;2.21;87.71
76551;BME280;68768;53.156;18.164;2023-11-18T08:40:20;102111.10;;;2.19;87.22
76551;BME280;68768;53.156;18.164;2023-11-18T08:42:50;102110.95;;;2.20;87.34
76551;BME280;68768;53.156;18.164;2023-11-18T08:45:23;102111.89;;;2.25;87.57
76551;BME280;68768;53.156;18.164;2023-11-18T08:47:56;102115.71;;;2.32;87.93
76551;BME280;68768;53.156;18.164;2023-11-18T08:50:25;102122.14;;;2.39;87.92
76551;BME280;68768;53.156;18.164;2023-11-18T08:52:53;102124.68;;;2.43;87.77
76551;BME280;68768;53.156;18.164;2023-11-18T08:55:32;102134.33;;;2.45;87.18
76551;BME280;68768;53.156;18.164;2023-11-18T08:58:17;102137.48;;;2.46;86.82
76551;BME280;68768;53.156;18.164;2023-11-18T09:00:49;102134.91;;;2.48;86.51
76551;BME280;68768;53.156;18.164;2023-11-18T09:03:30;102132.92;;;2.45;86.14
76551;BME280;68768;53.156;18.164;2023-11-18T09:06:10;102131.97;;;2.39;86.22
76551;BME280;68768;53.156;18.164;2023-11-18T09:08:52;102135.05;;;2.36;86.28
76551;BME280;68768;53.156;18.164;2023-11-18T09:11:21;102139.40;;;2.34;86.33
76551;BME280;68768;53.156;18.164;2023-11-18T09:13:50;102145.02;;;2.36;86.54
76551;BME280;68768;53.156;18.164;2023-11-18T09:16:20;102146.14;;;2.39;86.38
76551;BME280;68768;53.156;18.164;2023-11-18T09:18:49;102149.75;;;2.45;86.76
76551;BME280;68768;53.156;18.164;2023-11-18T09:21:16;102150.47;;;2.55;86.88
76551;BME280;68768;53.156;18.164;2023-11-18T09:23:46;102154.64;;;2.64;86.53
76551;BME280;68768;53.156;18.164;2023-11-18T09:26:16;102154.46;;;2.73;86.61
76551;BME280;68768;53.156;18.164;2023-11-18T09:28:43;102155.69;;;2.84;86.81
76551;BME280;68768;53.156;18.164;2023-11-18T09:31:16;102150.38;;;2.91;86.48
76551;BME280;68768;53.156;18.164;2023-11-18T09:33:43;102155.85;;;3.05;87.05
76551;BME280;68768;53.156;18.164;2023-11-18T09:36:19;102166.80;;;3.21;86.23
76551;BME280;68768;53.156;18.164;2023-11-18T09:38:46;102173.36;;;3.26;84.79
76551;BME280;68768;53.156;18.164;2023-11-18T09:41:13;102178.09;;;3.26;84.33
76551;BME280;68768;53.156;18.164;2023-11-18T09:43:42;102182.66;;;3.25;84.11
76551;BME280;68768;53.156;18.164;2023-11-18T09:46:10;102184.58;;;3.24;84.16
76551;BME280;68768;53.156;18.164;2023-11-18T09:51:24;102188.41;;;3.23;83.96
76551;BME280;68768;53.156;18.164;2023-11-18T09:53:54;102195.48;;;3.26;84.40
76551;BME280;68768;53.156;18.164;2023-11-18T09:56:35;102201.10;;;3.28;82.97
76551;BME280;68768;53.156;18.164;2023-11-18T09:59:11;102200.24;;;3.29;83.27
76551;BME280;68768;53.156;18.164;2023-11-18T10:01:43;102199.23;;;3.30;83.95
76551;BME280;68768;53.156;18.164;2023-11-18T10:04:12;102196.98;;;3.33;83.96
76551;BME280;68768;53.156;18.164;2023-11-18T10:06:43;102193.30;;;3.33;83.15
76551;BME280;68768;53.156;18.164;2023-11-18T10:09:11;102201.57;;;3.35;82.66
76551;BME280;68768;53.156;18.164;2023-11-18T10:11:51;102203.12;;;3.32;82.27
76551;BME280;68768;53.156;18.164;2023-11-18T10:14:21;102206.06;;;3.30;82.09
76551;BME280;68768;53.156;18.164;2023-11-18T10:16:50;102207.02;;;3.25;81.81
76551;BME280;68768;53.156;18.164;2023-11-18T10:19:20;102206.84;;;3.23;82.79
76551;BME280;68768;53.156;18.164;2023-11-18T10:21:48;102207.18;;;3.23;81.75
76551;BME280;68768;53.156;18.164;2023-11-18T10:24:15;102211.30;;;3.19;81.98
76551;BME280;68768;53.156;18.164;2023-11-18T10:26:56;102216.52;;;3.14;82.24
76551;BME280;68768;53.156;18.164;2023-11-18T10:29:24;102215.95;;;3.12;81.41
76551;BME280;68768;53.156;18.164;2023-11-18T10:32:05;102218.00;;;3.09;81.87
76551;BME280;68768;53.156;18.164;2023-11-18T10:34:35;102218.70;;;3.10;82.68
76551;BME280;68768;53.156;18.164;2023-11-18T10:37:03;102217.88;;;3.12;82.77
76551;BME280;68768;53.156;18.164;2023-11-18T10:39:31;102221.64;;;3.17;83.02
76551;BME280;68768;53.156;18.164;2023-11-18T10:41:59;102218.73;;;3.22;82.24
76551;BME280;68768;53.156;18.164;2023-11-18T10:44:29;102216.51;;;3.25;81.46
76551;BME280;68768;53.156;18.164;2023-11-18T10:46:56;102216.89;;;3.28;80.56
76551;BME280;68768;53.156;18.164;2023-11-18T10:49:29;102222.33;;;3.27;79.61
76551;BME280;68768;53.156;18.164;2023-11-18T10:52:04;102223.52;;;3.25;79.23
76551;BME280;68768;53.156;18.164;2023-11-18T10:54:34;102224.77;;;3.24;80.29
76551;BME280;68768;53.156;18.164;2023-11-18T10:57:01;102229.66;;;3.24;80.27
76551;BME280;68768;53.156;18.164;2023-11-18T10:59:34;102228.45;;;3.26;80.03
76551;BME280;68768;53.156;18.164;2023-11-18T11:02:17;102229.17;;;3.28;81.11
76551;BME280;68768;53.156;18.164;2023-11-18T11:04:45;102228.94;;;3.34;80.94
76551;BME280;68768;53.156;18.164;2023-11-18T11:07:13;102224.81;;;3.40;81.96
76551;BME280;68768;53.156;18.164;2023-11-18T11:09:41;102229.16;;;3.49;81.71
76551;BME280;68768;53.156;18.164;2023-11-18T11:12:13;102229.20;;;3.52;81.33
76551;BME280;68768;53.156;18.164;2023-11-18T11:17:24;102239.00;;;3.61;79.38
76551;BME280;68768;53.156;18.164;2023-11-18T11:20:05;102244.98;;;3.62;79.57
76551;BME280;68768;53.156;18.164;2023-11-18T11:28:34;102248.20;;;3.67;79.02
76551;BME280;68768;53.156;18.164;2023-11-18T11:36:30;102240.10;;;3.78;78.77
76551;BME280;68768;53.156;18.164;2023-11-18T11:39:01;102237.45;;;3.77;78.63
76551;BME280;68768;53.156;18.164;2023-11-18T11:41:30;102239.04;;;3.78;78.13
76551;BME280;68768;53.156;18.164;2023-11-18T11:44:01;102240.27;;;3.77;77.72
76551;BME280;68768;53.156;18.164;2023-11-18T11:46:28;102245.23;;;3.80;78.01
76551;BME280;68768;53.156;18.164;2023-11-18T11:49:01;102252.05;;;3.79;76.42
76551;BME280;68768;53.156;18.164;2023-11-18T11:51:45;102254.48;;;3.77;77.08
76551;BME280;68768;53.156;18.164;2023-11-18T11:54:26;102258.20;;;3.78;77.97
76551;BME280;68768;53.156;18.164;2023-11-18T11:56:57;102267.31;;;3.77;75.40
76551;BME280;68768;53.156;18.164;2023-11-18T12:02:24;102272.58;;;3.64;75.06
76551;BME280;68768;53.156;18.164;2023-11-18T12:04:56;102266.70;;;3.59;74.61
76551;BME280;68768;53.156;18.164;2023-11-18T12:07:25;102268.92;;;3.55;75.66
76551;BME280;68768;53.156;18.164;2023-11-18T12:09:59;102264.34;;;3.53;76.12
76551;BME280;68768;53.156;18.164;2023-11-18T12:12:27;102258.50;;;3.51;75.49
76551;BME280;68768;53.156;18.164;2023-11-18T12:14:58;102251.27;;;3.49;76.44
76551;BME280;68768;53.156;18.164;2023-11-18T12:23:14;102258.79;;;3.47;75.86
76551;BME280;68768;53.156;18.164;2023-11-18T12:25:42;102265.42;;;3.44;76.03
76551;BME280;68768;53.156;18.164;2023-11-18T12:28:11;102266.95;;;3.41;76.03
76551;BME280;68768;53.156;18.164;2023-11-18T12:30:39;102263.02;;;3.37;76.03
76551;BME280;68768;53.156;18.164;2023-11-18T12:33:10;102258.61;;;3.37;77.06
76551;BME280;68768;53.156;18.164;2023-11-18T12:41:40;102262.05;;;3.42;76.76
76551;BME280;68768;53.156;18.164;2023-11-18T12:44:47;102258.17;;;3.41;76.82
76551;BME280;68768;53.156;18.164;2023-11-18T12:47:24;102259.41;;;3.41;76.17
76551;BME280;68768;53.156;18.164;2023-11-18T12:49:55;102265.35;;;3.40;75.53
76551;BME280;68768;53.156;18.164;2023-11-18T12:52:23;102263.55;;;3.38;76.52
76551;BME280;68768;53.156;18.164;2023-11-18T12:54:50;102264.09;;;3.38;76.83
76551;BME280;68768;53.156;18.164;2023-11-18T12:57:26;102264.42;;;3.37;75.23
76551;BME280;68768;53.156;18.164;2023-11-18T12:59:57;102265.09;;;3.35;75.69
76551;BME280;68768;53.156;18.164;2023-11-18T13:02:25;102267.90;;;3.34;76.03
76551;BME280;68768;53.156;18.164;2023-11-18T13:04:51;102267.33;;;3.32;76.10
76551;BME280;68768;53.156;18.164;2023-11-18T13:07:19;102267.66;;;3.31;76.40
76551;BME280;68768;53.156;18.164;2023-11-18T13:09:51;102276.30;;;3.33;76.54
76551;BME280;68768;53.156;18.164;2023-11-18T13:12:21;102281.95;;;3.35;76.52
76551;BME280;68768;53.156;18.164;2023-11-18T13:14:50;102283.18;;;3.35;76.40
76551;BME280;68768;53.156;18.164;2023-11-18T13:17:18;102279.64;;;3.33;76.27
76551;BME280;68768;53.156;18.164;2023-11-18T13:19:45;102283.34;;;3.34;76.30
76551;BME280;68768;53.156;18.164;2023-11-18T13:22:14;102280.36;;;3.34;76.61
76551;BME280;68768;53.156;18.164;2023-11-18T13:24:42;102285.83;;;3.38;76.62
76551;BME280;68768;53.156;18.164;2023-11-18T13:27:15;102284.29;;;3.39;75.82
76551;BME280;68768;53.156;18.164;2023-11-18T13:29:47;102281.27;;;3.38;76.18
76551;BME280;68768;53.156;18.164;2023-11-18T13:32:20;102283.21;;;3.38;76.24
76551;BME280;68768;53.156;18.164;2023-11-18T13:34:52;102281.45;;;3.38;75.96
76551;BME280;68768;53.156;18.164;2023-11-18T13:37:19;102288.98;;;3.37;75.71